sensor_id;sensor_type;location;lat;lon;timestamp;P1;durP1;ratioP1;P2;durP2;ratioP2
43311;SDS011;30041;48.300;16.352;2023-07-22T00:01:06;4.78;;;2.10;;
43311;SDS011;30041;48.300;16.352;2023-07-22T00:03:32;3.30;;;2.20;;
43311;SDS011;30041;48.300;16.352;2023-07-22T00:06:07;3.30;;;2.20;;
43311;SDS011;30041;48.300;16.352;2023-07-22T00:08:35;3.72;;;2.40;;
43311;SDS011;30041;48.300;16.352;2023-07-22T00:11:01;4.18;;;2.10;;
43311;SDS011;30041;48.300;16.352;2023-07-22T00:13:27;2.90;;;1.98;;
43311;SDS011;30041;48.300;16.352;2023-07-22T00:15:53;3.25;;;2.13;;
43311;SDS011;30041;48.300;16.352;2023-07-22T00:18:19;2.88;;;2.00;;
43311;SDS011;30041;48.300;16.352;2023-07-22T00:20:44;3.35;;;2.10;;
43311;SDS011;30041;48.300;16.352;2023-07-22T00:23:10;3.72;;;2.08;;
43311;SDS011;30041;48.300;16.352;2023-07-22T00:25:35;4.85;;;2.22;;
43311;SDS011;30041;48.300;16.352;2023-07-22T00:28:01;4.47;;;2.28;;
43311;SDS011;30041;48.300;16.352;2023-07-22T00:30:26;4.40;;;1.88;;
43311;SDS011;30041;48.300;16.352;2023-07-22T00:32:51;3.72;;;2.10;;
43311;SDS011;30041;48.300;16.352;2023-07-22T00:35:17;2.88;;;1.98;;
43311;SDS011;30041;48.300;16.352;2023-07-22T00:37:42;3.55;;;2.00;;
43311;SDS011;30041;48.300;16.352;2023-07-22T00:40:08;3.65;;;2.10;;
43311;SDS011;30041;48.300;16.352;2023-07-22T00:42:34;4.55;;;1.92;;
43311;SDS011;30041;48.300;16.352;2023-07-22T00:44:59;3.50;;;2.08;;
43311;SDS011;30041;48.300;16.352;2023-07-22T00:47:25;4.90;;;2.03;;
43311;SDS011;30041;48.300;16.352;2023-07-22T00:49:50;3.20;;;1.88;;
43311;SDS011;30041;48.300;16.352;2023-07-22T00:52:17;2.83;;;2.03;;
43311;SDS011;30041;48.300;16.352;2023-07-22T00:54:42;4.80;;;2.00;;
43311;SDS011;30041;48.300;16.352;2023-07-22T00:57:08;3.13;;;2.05;;
43311;SDS011;30041;48.300;16.352;2023-07-22T00:59:34;3.25;;;2.17;;
43311;SDS011;30041;48.300;16.352;2023-07-22T01:02:00;3.88;;;1.88;;
43311;SDS011;30041;48.300;16.352;2023-07-22T01:04:25;3.95;;;2.08;;
43311;SDS011;30041;48.300;16.352;2023-07-22T01:06:51;3.10;;;1.90;;
43311;SDS011;30041;48.300;16.352;2023-07-22T01:09:16;2.80;;;1.88;;
43311;SDS011;30041;48.300;16.352;2023-07-22T01:11:42;4.20;;;2.00;;
43311;SDS011;30041;48.300;16.352;2023-07-22T01:14:09;3.28;;;2.13;;
43311;SDS011;30041;48.300;16.352;2023-07-22T01:16:35;2.28;;;1.67;;
43311;SDS011;30041;48.300;16.352;2023-07-22T01:19:01;3.28;;;2.00;;
43311;SDS011;30041;48.300;16.352;2023-07-22T01:21:26;3.33;;;1.80;;
43311;SDS011;30041;48.300;16.352;2023-07-22T01:23:54;3.88;;;2.10;;
43311;SDS011;30041;48.300;16.352;2023-07-22T01:26:19;2.92;;;2.00;;
43311;SDS011;30041;48.300;16.352;2023-07-22T01:28:45;2.95;;;1.95;;
43311;SDS011;30041;48.300;16.352;2023-07-22T01:31:10;4.47;;;1.80;;
43311;SDS011;30041;48.300;16.352;2023-07-22T01:33:36;2.58;;;1.88;;
43311;SDS011;30041;48.300;16.352;2023-07-22T01:36:02;4.25;;;2.00;;
43311;SDS011;30041;48.300;16.352;2023-07-22T01:38:28;3.85;;;1.95;;
43311;SDS011;30041;48.300;16.352;2023-07-22T01:40:53;3.22;;;1.88;;
43311;SDS011;30041;48.300;16.352;2023-07-22T01:43:18;2.65;;;1.55;;
43311;SDS011;30041;48.300;16.352;2023-07-22T01:45:44;2.22;;;1.55;;
43311;SDS011;30041;48.300;16.352;2023-07-22T01:48:09;3.85;;;1.83;;
43311;SDS011;30041;48.300;16.352;2023-07-22T01:50:35;2.97;;;1.80;;
43311;SDS011;30041;48.300;16.352;2023-07-22T01:53:00;3.70;;;1.90;;
43311;SDS011;30041;48.300;16.352;2023-07-22T01:55:26;3.88;;;2.03;;
43311;SDS011;30041;48.300;16.352;2023-07-22T01:57:51;2.63;;;1.77;;
43311;SDS011;30041;48.300;16.352;2023-07-22T02:00:17;2.45;;;1.58;;
43311;SDS011;30041;48.300;16.352;2023-07-22T02:02:42;2.90;;;1.90;;
43311;SDS011;30041;48.300;16.352;2023-07-22T02:05:08;2.10;;;1.60;;
43311;SDS011;30041;48.300;16.352;2023-07-22T02:07:34;2.10;;;1.58;;
43311;SDS011;30041;48.300;16.352;2023-07-22T02:09:59;4.28;;;1.80;;
43311;SDS011;30041;48.300;16.352;2023-07-22T02:12:25;2.42;;;1.60;;
43311;SDS011;30041;48.300;16.352;2023-07-22T02:14:50;3.08;;;1.90;;
43311;SDS011;30041;48.300;16.352;2023-07-22T02:17:16;3.55;;;1.95;;
43311;SDS011;30041;48.300;16.352;2023-07-22T02:19:41;2.45;;;1.63;;
43311;SDS011;30041;48.300;16.352;2023-07-22T02:22:07;2.50;;;1.60;;
43311;SDS011;30041;48.300;16.352;2023-07-22T02:24:32;2.40;;;1.77;;
43311;SDS011;30041;48.300;16.352;2023-07-22T02:26:58;2.83;;;1.60;;
43311;SDS011;30041;48.300;16.352;2023-07-22T02:29:23;3.05;;;1.60;;
43311;SDS011;30041;48.300;16.352;2023-07-22T02:31:49;1.75;;;1.30;;
43311;SDS011;30041;48.300;16.352;2023-07-22T02:34:14;2.90;;;1.60;;
43311;SDS011;30041;48.300;16.352;2023-07-22T02:36:40;3.55;;;1.60;;
43311;SDS011;30041;48.300;16.352;2023-07-22T02:39:05;2.50;;;1.70;;
43311;SDS011;30041;48.300;16.352;2023-07-22T02:41:31;2.30;;;1.40;;
43311;SDS011;30041;48.300;16.352;2023-07-22T02:43:57;2.83;;;1.50;;
43311;SDS011;30041;48.300;16.352;2023-07-22T02:46:22;2.50;;;1.80;;
43311;SDS011;30041;48.300;16.352;2023-07-22T02:48:48;2.38;;;1.48;;
43311;SDS011;30041;48.300;16.352;2023-07-22T02:51:13;3.50;;;1.70;;
43311;SDS011;30041;48.300;16.352;2023-07-22T02:53:38;3.47;;;1.63;;
43311;SDS011;30041;48.300;16.352;2023-07-22T02:56:04;4.20;;;1.67;;
43311;SDS011;30041;48.300;16.352;2023-07-22T02:58:30;3.67;;;1.80;;
43311;SDS011;30041;48.300;16.352;2023-07-22T03:00:56;3.45;;;1.60;;
43311;SDS011;30041;48.300;16.352;2023-07-22T03:03:21;2.60;;;1.80;;
43311;SDS011;30041;48.300;16.352;2023-07-22T03:05:47;2.88;;;1.67;;
43311;SDS011;30041;48.300;16.352;2023-07-22T03:08:12;3.92;;;1.67;;
43311;SDS011;30041;48.300;16.352;2023-07-22T03:10:38;2.80;;;1.80;;
43311;SDS011;30041;48.300;16.352;2023-07-22T03:13:03;4.05;;;1.40;;
43311;SDS011;30041;48.300;16.352;2023-07-22T03:15:29;2.80;;;1.60;;
43311;SDS011;30041;48.300;16.352;2023-07-22T03:17:55;2.55;;;1.60;;
43311;SDS011;30041;48.300;16.352;2023-07-22T03:20:21;3.30;;;1.83;;
43311;SDS011;30041;48.300;16.352;2023-07-22T03:22:47;2.45;;;1.42;;
43311;SDS011;30041;48.300;16.352;2023-07-22T03:25:13;2.78;;;1.58;;
43311;SDS011;30041;48.300;16.352;2023-07-22T03:27:40;2.70;;;1.80;;
43311;SDS011;30041;48.300;16.352;2023-07-22T03:30:06;3.15;;;1.90;;
43311;SDS011;30041;48.300;16.352;2023-07-22T03:32:32;2.92;;;1.70;;
43311;SDS011;30041;48.300;16.352;2023-07-22T03:34:58;2.67;;;1.75;;
43311;SDS011;30041;48.300;16.352;2023-07-22T03:37:24;2.88;;;1.65;;
43311;SDS011;30041;48.300;16.352;2023-07-22T03:39:49;2.90;;;1.90;;
43311;SDS011;30041;48.300;16.352;2023-07-22T03:42:15;3.28;;;1.75;;
43311;SDS011;30041;48.300;16.352;2023-07-22T03:44:40;5.75;;;1.95;;
43311;SDS011;30041;48.300;16.352;2023-07-22T03:47:05;3.65;;;2.10;;
43311;SDS011;30041;48.300;16.352;2023-07-22T03:49:31;4.10;;;1.98;;
43311;SDS011;30041;48.300;16.352;2023-07-22T03:51:57;5.88;;;2.20;;
43311;SDS011;30041;48.300;16.352;2023-07-22T03:54:22;2.90;;;2.00;;
43311;SDS011;30041;48.300;16.352;2023-07-22T03:56:48;3.00;;;1.90;;
43311;SDS011;30041;48.300;16.352;2023-07-22T03:59:13;4.03;;;2.00;;
43311;SDS011;30041;48.300;16.352;2023-07-22T04:01:39;5.78;;;1.88;;
43311;SDS011;30041;48.300;16.352;2023-07-22T04:04:04;4.35;;;2.10;;
43311;SDS011;30041;48.300;16.352;2023-07-22T04:06:29;3.58;;;2.20;;
43311;SDS011;30041;48.300;16.352;2023-07-22T04:08:55;4.38;;;1.80;;
43311;SDS011;30041;48.300;16.352;2023-07-22T04:11:20;4.97;;;2.10;;
43311;SDS011;30041;48.300;16.352;2023-07-22T04:13:46;4.65;;;2.28;;
43311;SDS011;30041;48.300;16.352;2023-07-22T04:16:11;3.38;;;2.20;;
43311;SDS011;30041;48.300;16.352;2023-07-22T04:18:37;4.18;;;2.20;;
43311;SDS011;30041;48.300;16.352;2023-07-22T04:21:03;3.63;;;2.10;;
43311;SDS011;30041;48.300;16.352;2023-07-22T04:23:28;3.22;;;2.03;;
43311;SDS011;30041;48.300;16.352;2023-07-22T04:25:54;3.53;;;2.08;;
43311;SDS011;30041;48.300;16.352;2023-07-22T04:28:19;4.40;;;2.20;;
43311;SDS011;30041;48.300;16.352;2023-07-22T04:30:54;3.08;;;2.17;;
43311;SDS011;30041;48.300;16.352;2023-07-22T04:33:21;3.63;;;2.00;;
43311;SDS011;30041;48.300;16.352;2023-07-22T04:35:46;5.38;;;2.38;;
43311;SDS011;30041;48.300;16.352;2023-07-22T04:38:12;3.72;;;2.25;;
43311;SDS011;30041;48.300;16.352;2023-07-22T04:40:42;4.68;;;2.20;;
43311;SDS011;30041;48.300;16.352;2023-07-22T04:43:08;4.57;;;2.40;;
43311;SDS011;30041;48.300;16.352;2023-07-22T04:45:33;6.57;;;2.17;;
43311;SDS011;30041;48.300;16.352;2023-07-22T04:47:59;6.50;;;2.50;;
43311;SDS011;30041;48.300;16.352;2023-07-22T04:50:24;5.20;;;2.42;;
43311;SDS011;30041;48.300;16.352;2023-07-22T04:52:50;4.85;;;2.17;;
43311;SDS011;30041;48.300;16.352;2023-07-22T04:55:15;7.00;;;3.28;;
43311;SDS011;30041;48.300;16.352;2023-07-22T04:57:43;6.20;;;2.63;;
43311;SDS011;30041;48.300;16.352;2023-07-22T05:00:09;3.25;;;2.50;;
43311;SDS011;30041;48.300;16.352;2023-07-22T05:02:35;3.25;;;2.00;;
43311;SDS011;30041;48.300;16.352;2023-07-22T05:05:00;4.50;;;2.28;;
43311;SDS011;30041;48.300;16.352;2023-07-22T05:07:26;6.55;;;2.63;;
43311;SDS011;30041;48.300;16.352;2023-07-22T05:09:51;6.32;;;2.38;;
43311;SDS011;30041;48.300;16.352;2023-07-22T05:12:17;4.22;;;2.25;;
43311;SDS011;30041;48.300;16.352;2023-07-22T05:14:44;4.13;;;2.25;;
43311;SDS011;30041;48.300;16.352;2023-07-22T05:17:10;4.07;;;2.13;;
43311;SDS011;30041;48.300;16.352;2023-07-22T05:19:36;3.63;;;2.10;;
43311;SDS011;30041;48.300;16.352;2023-07-22T05:22:01;6.40;;;2.20;;
43311;SDS011;30041;48.300;16.352;2023-07-22T05:24:27;4.78;;;2.33;;
43311;SDS011;30041;48.300;16.352;2023-07-22T05:26:53;7.53;;;2.20;;
43311;SDS011;30041;48.300;16.352;2023-07-22T05:29:18;5.00;;;2.15;;
43311;SDS011;30041;48.300;16.352;2023-07-22T05:31:44;3.92;;;2.17;;
43311;SDS011;30041;48.300;16.352;2023-07-22T05:34:09;2.97;;;1.83;;
43311;SDS011;30041;48.300;16.352;2023-07-22T05:36:35;5.72;;;2.28;;
43311;SDS011;30041;48.300;16.352;2023-07-22T05:39:01;5.05;;;2.15;;
43311;SDS011;30041;48.300;16.352;2023-07-22T05:41:26;4.50;;;2.05;;
43311;SDS011;30041;48.300;16.352;2023-07-22T05:43:52;6.65;;;2.10;;
43311;SDS011;30041;48.300;16.352;2023-07-22T05:46:18;3.05;;;1.88;;
43311;SDS011;30041;48.300;16.352;2023-07-22T05:48:43;3.15;;;1.77;;
43311;SDS011;30041;48.300;16.352;2023-07-22T05:51:09;6.07;;;2.00;;
43311;SDS011;30041;48.300;16.352;2023-07-22T05:53:35;4.63;;;2.00;;
43311;SDS011;30041;48.300;16.352;2023-07-22T05:56:00;3.97;;;2.00;;
43311;SDS011;30041;48.300;16.352;2023-07-22T05:58:26;3.53;;;1.88;;
43311;SDS011;30041;48.300;16.352;2023-07-22T06:00:53;4.65;;;1.65;;
43311;SDS011;30041;48.300;16.352;2023-07-22T06:03:19;3.05;;;1.60;;
43311;SDS011;30041;48.300;16.352;2023-07-22T06:05:45;3.20;;;1.80;;
43311;SDS011;30041;48.300;16.352;2023-07-22T06:08:11;5.55;;;2.05;;
43311;SDS011;30041;48.300;16.352;2023-07-22T06:10:36;5.38;;;2.00;;
43311;SDS011;30041;48.300;16.352;2023-07-22T06:13:02;4.45;;;2.10;;
43311;SDS011;30041;48.300;16.352;2023-07-22T06:15:27;5.40;;;1.90;;
43311;SDS011;30041;48.300;16.352;2023-07-22T06:17:53;3.42;;;2.20;;
43311;SDS011;30041;48.300;16.352;2023-07-22T06:20:18;3.85;;;1.98;;
43311;SDS011;30041;48.300;16.352;2023-07-22T06:22:44;3.75;;;1.75;;
43311;SDS011;30041;48.300;16.352;2023-07-22T06:25:10;3.67;;;1.90;;
43311;SDS011;30041;48.300;16.352;2023-07-22T06:27:35;3.80;;;1.92;;
43311;SDS011;30041;48.300;16.352;2023-07-22T06:30:01;5.28;;;1.95;;
43311;SDS011;30041;48.300;16.352;2023-07-22T06:32:27;5.28;;;2.40;;
43311;SDS011;30041;48.300;16.352;2023-07-22T06:34:53;4.20;;;1.85;;
43311;SDS011;30041;48.300;16.352;2023-07-22T06:37:19;3.03;;;1.70;;
43311;SDS011;30041;48.300;16.352;2023-07-22T06:39:44;3.15;;;1.83;;
43311;SDS011;30041;48.300;16.352;2023-07-22T06:42:10;2.22;;;1.55;;
43311;SDS011;30041;48.300;16.352;2023-07-22T06:44:35;3.63;;;1.83;;
43311;SDS011;30041;48.300;16.352;2023-07-22T06:47:01;4.72;;;2.00;;
43311;SDS011;30041;48.300;16.352;2023-07-22T06:49:26;2.63;;;1.70;;
43311;SDS011;30041;48.300;16.352;2023-07-22T06:51:52;3.38;;;2.00;;
43311;SDS011;30041;48.300;16.352;2023-07-22T06:54:17;5.07;;;1.60;;
43311;SDS011;30041;48.300;16.352;2023-07-22T06:56:43;4.00;;;1.85;;
43311;SDS011;30041;48.300;16.352;2023-07-22T06:59:08;3.65;;;1.77;;
43311;SDS011;30041;48.300;16.352;2023-07-22T07:01:34;3.03;;;1.70;;
43311;SDS011;30041;48.300;16.352;2023-07-22T07:03:59;5.38;;;2.30;;
43311;SDS011;30041;48.300;16.352;2023-07-22T07:06:25;3.88;;;2.10;;
43311;SDS011;30041;48.300;16.352;2023-07-22T07:08:50;5.88;;;2.20;;
43311;SDS011;30041;48.300;16.352;2023-07-22T07:11:16;3.97;;;2.15;;
43311;SDS011;30041;48.300;16.352;2023-07-22T07:13:41;3.22;;;1.90;;
43311;SDS011;30041;48.300;16.352;2023-07-22T07:16:23;4.45;;;1.92;;
43311;SDS011;30041;48.300;16.352;2023-07-22T07:18:50;7.90;;;2.17;;
43311;SDS011;30041;48.300;16.352;2023-07-22T07:21:16;3.75;;;2.03;;
43311;SDS011;30041;48.300;16.352;2023-07-22T07:23:42;5.18;;;2.20;;
43311;SDS011;30041;48.300;16.352;2023-07-22T07:26:08;3.13;;;1.90;;
43311;SDS011;30041;48.300;16.352;2023-07-22T07:28:33;3.42;;;1.90;;
43311;SDS011;30041;48.300;16.352;2023-07-22T07:30:59;6.03;;;2.00;;
43311;SDS011;30041;48.300;16.352;2023-07-22T07:33:24;6.10;;;1.80;;
43311;SDS011;30041;48.300;16.352;2023-07-22T07:35:50;4.97;;;2.10;;
43311;SDS011;30041;48.300;16.352;2023-07-22T07:38:15;4.15;;;2.03;;
43311;SDS011;30041;48.300;16.352;2023-07-22T07:40:41;5.10;;;1.88;;
43311;SDS011;30041;48.300;16.352;2023-07-22T07:43:06;3.38;;;1.90;;
43311;SDS011;30041;48.300;16.352;2023-07-22T07:45:32;4.85;;;1.90;;
43311;SDS011;30041;48.300;16.352;2023-07-22T07:47:58;4.22;;;1.80;;
43311;SDS011;30041;48.300;16.352;2023-07-22T07:50:23;6.15;;;1.90;;
43311;SDS011;30041;48.300;16.352;2023-07-22T07:52:49;3.05;;;1.77;;
43311;SDS011;30041;48.300;16.352;2023-07-22T07:55:14;2.40;;;1.50;;
43311;SDS011;30041;48.300;16.352;2023-07-22T07:57:40;5.32;;;1.63;;
43311;SDS011;30041;48.300;16.352;2023-07-22T08:00:06;4.05;;;1.70;;
43311;SDS011;30041;48.300;16.352;2023-07-22T08:02:32;4.47;;;1.92;;
43311;SDS011;30041;48.300;16.352;2023-07-22T08:04:57;8.35;;;1.85;;
43311;SDS011;30041;48.300;16.352;2023-07-22T08:07:23;5.30;;;1.83;;
43311;SDS011;30041;48.300;16.352;2023-07-22T08:09:48;3.30;;;1.75;;
43311;SDS011;30041;48.300;16.352;2023-07-22T08:12:14;8.75;;;1.98;;
43311;SDS011;30041;48.300;16.352;2023-07-22T08:14:40;3.30;;;1.70;;
43311;SDS011;30041;48.300;16.352;2023-07-22T08:17:05;5.38;;;1.77;;
43311;SDS011;30041;48.300;16.352;2023-07-22T08:19:31;4.68;;;1.48;;
43311;SDS011;30041;48.300;16.352;2023-07-22T08:21:56;2.60;;;1.52;;
43311;SDS011;30041;48.300;16.352;2023-07-22T08:24:22;2.95;;;1.50;;
43311;SDS011;30041;48.300;16.352;2023-07-22T08:26:48;3.35;;;1.48;;
43311;SDS011;30041;48.300;16.352;2023-07-22T08:29:13;3.13;;;1.30;;
43311;SDS011;30041;48.300;16.352;2023-07-22T08:31:39;3.50;;;1.60;;
43311;SDS011;30041;48.300;16.352;2023-07-22T08:34:05;3.20;;;1.60;;
43311;SDS011;30041;48.300;16.352;2023-07-22T08:36:30;2.63;;;1.55;;
43311;SDS011;30041;48.300;16.352;2023-07-22T08:38:56;2.75;;;1.65;;
43311;SDS011;30041;48.300;16.352;2023-07-22T08:41:22;7.50;;;1.63;;
43311;SDS011;30041;48.300;16.352;2023-07-22T08:43:48;5.38;;;1.60;;
43311;SDS011;30041;48.300;16.352;2023-07-22T08:46:16;6.00;;;1.67;;
43311;SDS011;30041;48.300;16.352;2023-07-22T08:48:46;5.00;;;1.60;;
43311;SDS011;30041;48.300;16.352;2023-07-22T08:51:15;4.70;;;1.45;;
43311;SDS011;30041;48.300;16.352;2023-07-22T08:53:45;4.07;;;1.70;;
43311;SDS011;30041;48.300;16.352;2023-07-22T08:56:12;4.82;;;1.60;;
43311;SDS011;30041;48.300;16.352;2023-07-22T08:58:38;4.82;;;1.70;;
43311;SDS011;30041;48.300;16.352;2023-07-22T09:01:09;4.22;;;1.67;;
43311;SDS011;30041;48.300;16.352;2023-07-22T09:03:36;3.65;;;1.45;;
43311;SDS011;30041;48.300;16.352;2023-07-22T09:06:04;3.85;;;1.42;;
43311;SDS011;30041;48.300;16.352;2023-07-22T09:08:30;6.82;;;1.80;;
43311;SDS011;30041;48.300;16.352;2023-07-22T09:10:56;2.50;;;1.60;;
43311;SDS011;30041;48.300;16.352;2023-07-22T09:13:22;2.92;;;1.65;;
43311;SDS011;30041;48.300;16.352;2023-07-22T09:15:48;4.85;;;1.50;;
43311;SDS011;30041;48.300;16.352;2023-07-22T09:18:17;3.17;;;1.50;;
43311;SDS011;30041;48.300;16.352;2023-07-22T09:20:43;5.50;;;1.38;;
43311;SDS011;30041;48.300;16.352;2023-07-22T09:23:08;3.03;;;1.65;;
43311;SDS011;30041;48.300;16.352;2023-07-22T09:25:34;4.40;;;1.50;;
43311;SDS011;30041;48.300;16.352;2023-07-22T09:28:00;5.05;;;1.50;;
43311;SDS011;30041;48.300;16.352;2023-07-22T09:30:26;2.95;;;1.55;;
43311;SDS011;30041;48.300;16.352;2023-07-22T09:32:54;5.55;;;1.55;;
43311;SDS011;30041;48.300;16.352;2023-07-22T09:35:25;2.35;;;1.50;;
43311;SDS011;30041;48.300;16.352;2023-07-22T09:37:52;1.88;;;1.17;;
43311;SDS011;30041;48.300;16.352;2023-07-22T09:40:27;2.17;;;1.52;;
43311;SDS011;30041;48.300;16.352;2023-07-22T09:42:54;7.22;;;1.40;;
43311;SDS011;30041;48.300;16.352;2023-07-22T09:45:25;1.92;;;1.23;;
43311;SDS011;30041;48.300;16.352;2023-07-22T09:47:55;2.17;;;1.20;;
43311;SDS011;30041;48.300;16.352;2023-07-22T09:50:22;3.25;;;1.30;;
43311;SDS011;30041;48.300;16.352;2023-07-22T09:55:25;6.60;;;1.40;;
43311;SDS011;30041;48.300;16.352;2023-07-22T09:57:53;2.67;;;1.45;;
43311;SDS011;30041;48.300;16.352;2023-07-22T10:00:23;3.58;;;1.33;;
43311;SDS011;30041;48.300;16.352;2023-07-22T10:02:50;2.47;;;1.40;;
43311;SDS011;30041;48.300;16.352;2023-07-22T10:05:17;3.53;;;1.65;;
43311;SDS011;30041;48.300;16.352;2023-07-22T10:07:48;5.63;;;1.42;;
43311;SDS011;30041;48.300;16.352;2023-07-22T10:10:15;10.48;;;1.92;;
43311;SDS011;30041;48.300;16.352;2023-07-22T10:12:43;9.88;;;1.88;;
43311;SDS011;30041;48.300;16.352;2023-07-22T10:15:10;5.57;;;1.73;;
43311;SDS011;30041;48.300;16.352;2023-07-22T10:17:36;4.00;;;1.60;;
43311;SDS011;30041;48.300;16.352;2023-07-22T10:20:02;3.05;;;1.40;;
43311;SDS011;30041;48.300;16.352;2023-07-22T10:22:28;3.25;;;1.50;;
43311;SDS011;30041;48.300;16.352;2023-07-22T10:24:54;4.53;;;1.70;;
43311;SDS011;30041;48.300;16.352;2023-07-22T10:27:21;3.22;;;1.35;;
43311;SDS011;30041;48.300;16.352;2023-07-22T10:29:48;5.65;;;1.42;;
43311;SDS011;30041;48.300;16.352;2023-07-22T10:32:15;2.65;;;1.30;;
43311;SDS011;30041;48.300;16.352;2023-07-22T10:34:40;4.63;;;1.50;;
43311;SDS011;30041;48.300;16.352;2023-07-22T10:37:08;3.72;;;1.65;;
43311;SDS011;30041;48.300;16.352;2023-07-22T10:39:34;2.72;;;1.40;;
43311;SDS011;30041;48.300;16.352;2023-07-22T10:42:03;7.43;;;1.65;;
43311;SDS011;30041;48.300;16.352;2023-07-22T10:44:33;2.63;;;1.42;;
43311;SDS011;30041;48.300;16.352;2023-07-22T10:47:01;4.70;;;1.42;;
43311;SDS011;30041;48.300;16.352;2023-07-22T10:49:28;5.15;;;1.48;;
43311;SDS011;30041;48.300;16.352;2023-07-22T10:52:09;4.32;;;1.45;;
43311;SDS011;30041;48.300;16.352;2023-07-22T10:54:36;4.53;;;1.50;;
43311;SDS011;30041;48.300;16.352;2023-07-22T10:57:02;3.40;;;1.52;;
43311;SDS011;30041;48.300;16.352;2023-07-22T10:59:28;4.20;;;1.25;;
43311;SDS011;30041;48.300;16.352;2023-07-22T11:01:57;3.20;;;1.42;;
43311;SDS011;30041;48.300;16.352;2023-07-22T11:04:23;3.88;;;1.45;;
43311;SDS011;30041;48.300;16.352;2023-07-22T11:11:53;3.97;;;1.83;;
43311;SDS011;30041;48.300;16.352;2023-07-22T11:14:24;5.50;;;1.58;;
43311;SDS011;30041;48.300;16.352;2023-07-22T11:16:51;6.75;;;1.50;;
43311;SDS011;30041;48.300;16.352;2023-07-22T11:19:18;8.73;;;1.70;;
43311;SDS011;30041;48.300;16.352;2023-07-22T11:21:48;7.93;;;1.77;;
43311;SDS011;30041;48.300;16.352;2023-07-22T11:24:15;5.05;;;1.73;;
43311;SDS011;30041;48.300;16.352;2023-07-22T11:26:41;18.85;;;2.20;;
43311;SDS011;30041;48.300;16.352;2023-07-22T11:29:08;10.52;;;2.00;;
43311;SDS011;30041;48.300;16.352;2023-07-22T11:31:41;10.30;;;1.98;;
43311;SDS011;30041;48.300;16.352;2023-07-22T11:34:08;15.27;;;1.85;;
43311;SDS011;30041;48.300;16.352;2023-07-22T11:36:34;8.20;;;1.83;;
43311;SDS011;30041;48.300;16.352;2023-07-22T11:39:03;5.75;;;1.55;;
43311;SDS011;30041;48.300;16.352;2023-07-22T11:41:33;3.88;;;1.88;;
43311;SDS011;30041;48.300;16.352;2023-07-22T11:44:00;9.20;;;1.90;;
43311;SDS011;30041;48.300;16.352;2023-07-22T11:46:27;8.30;;;1.80;;
43311;SDS011;30041;48.300;16.352;2023-07-22T11:48:54;7.65;;;2.13;;
43311;SDS011;30041;48.300;16.352;2023-07-22T11:51:21;6.22;;;2.17;;
43311;SDS011;30041;48.300;16.352;2023-07-22T11:53:52;6.60;;;1.80;;
43311;SDS011;30041;48.300;16.352;2023-07-22T11:56:22;3.17;;;1.77;;
43311;SDS011;30041;48.300;16.352;2023-07-22T11:58:50;4.55;;;1.80;;
43311;SDS011;30041;48.300;16.352;2023-07-22T12:01:17;4.35;;;1.58;;
43311;SDS011;30041;48.300;16.352;2023-07-22T12:03:42;4.00;;;1.70;;
43311;SDS011;30041;48.300;16.352;2023-07-22T12:06:08;3.13;;;1.60;;
43311;SDS011;30041;48.300;16.352;2023-07-22T12:08:35;3.78;;;1.90;;
43311;SDS011;30041;48.300;16.352;2023-07-22T12:11:01;5.07;;;1.85;;
43311;SDS011;30041;48.300;16.352;2023-07-22T12:13:27;4.70;;;1.88;;
43311;SDS011;30041;48.300;16.352;2023-07-22T12:16:01;4.25;;;1.80;;
43311;SDS011;30041;48.300;16.352;2023-07-22T12:18:28;4.00;;;1.85;;
43311;SDS011;30041;48.300;16.352;2023-07-22T12:21:05;4.05;;;1.90;;
43311;SDS011;30041;48.300;16.352;2023-07-22T12:23:31;5.95;;;1.83;;
43311;SDS011;30041;48.300;16.352;2023-07-22T12:25:56;5.32;;;1.90;;
43311;SDS011;30041;48.300;16.352;2023-07-22T12:28:22;8.15;;;1.88;;
43311;SDS011;30041;48.300;16.352;2023-07-22T12:30:47;4.25;;;1.67;;
43311;SDS011;30041;48.300;16.352;2023-07-22T12:33:12;3.58;;;1.80;;
43311;SDS011;30041;48.300;16.352;2023-07-22T12:35:38;6.22;;;2.03;;
43311;SDS011;30041;48.300;16.352;2023-07-22T12:38:04;13.32;;;2.53;;
43311;SDS011;30041;48.300;16.352;2023-07-22T12:40:29;8.20;;;2.08;;
43311;SDS011;30041;48.300;16.352;2023-07-22T12:42:55;6.75;;;2.00;;
43311;SDS011;30041;48.300;16.352;2023-07-22T12:45:20;7.10;;;2.10;;
43311;SDS011;30041;48.300;16.352;2023-07-22T12:47:46;11.40;;;2.20;;
43311;SDS011;30041;48.300;16.352;2023-07-22T12:50:11;5.68;;;2.20;;
43311;SDS011;30041;48.300;16.352;2023-07-22T12:52:37;10.65;;;2.22;;
43311;SDS011;30041;48.300;16.352;2023-07-22T12:55:03;8.38;;;2.47;;
43311;SDS011;30041;48.300;16.352;2023-07-22T12:57:28;6.65;;;2.10;;
43311;SDS011;30041;48.300;16.352;2023-07-22T12:59:54;12.25;;;2.45;;
43311;SDS011;30041;48.300;16.352;2023-07-22T13:02:19;12.27;;;2.40;;
43311;SDS011;30041;48.300;16.352;2023-07-22T13:04:45;8.05;;;2.40;;
43311;SDS011;30041;48.300;16.352;2023-07-22T13:07:11;7.90;;;2.45;;
43311;SDS011;30041;48.300;16.352;2023-07-22T13:09:36;5.97;;;2.30;;
43311;SDS011;30041;48.300;16.352;2023-07-22T13:12:02;9.45;;;2.13;;
43311;SDS011;30041;48.300;16.352;2023-07-22T13:14:27;7.53;;;2.05;;
43311;SDS011;30041;48.300;16.352;2023-07-22T13:16:53;9.43;;;2.08;;
43311;SDS011;30041;48.300;16.352;2023-07-22T13:19:19;4.07;;;1.77;;
43311;SDS011;30041;48.300;16.352;2023-07-22T13:21:44;7.38;;;1.90;;
43311;SDS011;30041;48.300;16.352;2023-07-22T13:24:09;4.85;;;1.85;;
43311;SDS011;30041;48.300;16.352;2023-07-22T13:26:35;3.30;;;1.90;;
43311;SDS011;30041;48.300;16.352;2023-07-22T13:29:00;5.10;;;2.58;;
43311;SDS011;30041;48.300;16.352;2023-07-22T13:31:26;5.60;;;1.95;;
43311;SDS011;30041;48.300;16.352;2023-07-22T13:33:51;4.07;;;2.10;;
43311;SDS011;30041;48.300;16.352;2023-07-22T13:36:17;4.78;;;1.90;;
43311;SDS011;30041;48.300;16.352;2023-07-22T13:38:42;5.57;;;2.00;;
43311;SDS011;30041;48.300;16.352;2023-07-22T13:41:08;4.05;;;1.88;;
43311;SDS011;30041;48.300;16.352;2023-07-22T13:43:33;5.70;;;2.08;;
43311;SDS011;30041;48.300;16.352;2023-07-22T13:45:58;4.63;;;1.90;;
43311;SDS011;30041;48.300;16.352;2023-07-22T13:48:24;3.42;;;2.00;;
43311;SDS011;30041;48.300;16.352;2023-07-22T13:50:49;6.40;;;2.00;;
43311;SDS011;30041;48.300;16.352;2023-07-22T13:53:15;3.72;;;1.90;;
43311;SDS011;30041;48.300;16.352;2023-07-22T13:55:40;3.85;;;2.00;;
43311;SDS011;30041;48.300;16.352;2023-07-22T13:58:06;3.22;;;1.77;;
43311;SDS011;30041;48.300;16.352;2023-07-22T14:00:31;3.55;;;1.95;;
43311;SDS011;30041;48.300;16.352;2023-07-22T14:02:58;3.88;;;2.10;;
43311;SDS011;30041;48.300;16.352;2023-07-22T14:05:23;2.83;;;1.70;;
43311;SDS011;30041;48.300;16.352;2023-07-22T14:07:49;5.22;;;2.00;;
43311;SDS011;30041;48.300;16.352;2023-07-22T14:10:14;4.00;;;2.08;;
43311;SDS011;30041;48.300;16.352;2023-07-22T14:12:40;4.30;;;1.73;;
43311;SDS011;30041;48.300;16.352;2023-07-22T14:15:06;2.80;;;1.75;;
43311;SDS011;30041;48.300;16.352;2023-07-22T14:17:32;2.80;;;1.60;;
43311;SDS011;30041;48.300;16.352;2023-07-22T14:19:57;5.38;;;1.73;;
43311;SDS011;30041;48.300;16.352;2023-07-22T14:22:23;5.03;;;1.92;;
43311;SDS011;30041;48.300;16.352;2023-07-22T14:24:49;4.13;;;1.80;;
43311;SDS011;30041;48.300;16.352;2023-07-22T14:27:14;4.55;;;1.80;;
43311;SDS011;30041;48.300;16.352;2023-07-22T14:29:40;4.45;;;1.80;;
43311;SDS011;30041;48.300;16.352;2023-07-22T14:32:06;4.40;;;1.90;;
43311;SDS011;30041;48.300;16.352;2023-07-22T14:34:31;3.25;;;1.85;;